Time;durP1;ratioP1;P1;durP2;ratioP2;P2;SDS_P1;SDS_P2;PMS_P1;PMS_P2;Temp;Humidity;BMP_temperature;BMP_pressure;BME280_temperature;BME280_humidity;BME280_pressure;Samples;Min_cycle;Max_cycle;Signal;HPM_P1;HPM_P2
2022/04/30 00:02:06;;;;;;;16.02;8.40;;;9.30;99.90;;;;;;5053777;28;20489;-70
2022/04/30 00:04:52;;;;;;;18.08;8.13;;;9.20;99.90;;;;;;5053724;28;20072;-70
2022/04/30 00:07:20;;;;;;;15.82;8.75;;;9.20;99.90;;;;;;5053446;28;20087;-72
2022/04/30 00:09:46;;;;;;;17.60;8.80;;;9.20;99.90;;;;;;5053372;28;20096;-72
2022/04/30 00:12:13;;;;;;;16.92;8.30;;;9.20;99.90;;;;;;5053421;28;20028;-69
2022/04/30 00:14:39;;;;;;;17.10;8.43;;;9.20;99.90;;;;;;5053519;28;20024;-70
2022/04/30 00:17:05;;;;;;;18.98;8.65;;;9.20;99.90;;;;;;5053350;28;20108;-69
2022/04/30 00:19:31;;;;;;;16.23;8.38;;;9.20;99.90;;;;;;5053282;28;20500;-69
2022/04/30 00:21:57;;;;;;;17.42;9.07;;;9.20;99.90;;;;;;5053257;28;20033;-70
2022/04/30 00:24:24;;;;;;;17.08;8.45;;;9.20;99.90;;;;;;5052944;28;20410;-71
2022/04/30 00:26:50;;;;;;;16.27;8.50;;;9.20;99.90;;;;;;5053182;28;20024;-70
2022/04/30 00:29:16;;;;;;;18.33;8.90;;;9.20;99.90;;;;;;5053111;28;20099;-70
2022/04/30 00:31:43;;;;;;;14.43;8.23;;;9.10;99.90;;;;;;5053140;28;20087;-70
2022/04/30 00:34:09;;;;;;;20.58;8.70;;;9.10;99.90;;;;;;5053369;28;20025;-70
2022/04/30 00:36:35;;;;;;;17.08;9.00;;;9.10;99.90;;;;;;5052861;28;20040;-69
2022/04/30 00:39:02;;;;;;;18.42;9.98;;;9.00;99.90;;;;;;5053100;28;20017;-70
2022/04/30 00:41:28;;;;;;;15.07;8.32;;;9.00;99.90;;;;;;5053021;28;20108;-70
2022/04/30 00:43:54;;;;;;;16.63;9.73;;;8.90;99.90;;;;;;5053252;28;20060;-70
2022/04/30 00:46:21;;;;;;;15.43;8.57;;;8.80;99.90;;;;;;5053292;28;20029;-70
2022/04/30 00:48:48;;;;;;;17.45;9.32;;;8.80;99.90;;;;;;5052978;28;20021;-70
2022/04/30 00:51:16;;;;;;;16.08;9.40;;;8.70;99.90;;;;;;5052971;28;20021;-70
2022/04/30 00:53:49;;;;;;;16.48;9.57;;;8.60;99.90;;;;;;5052937;28;20014;-69
2022/04/30 00:56:18;;;;;;;20.50;8.70;;;8.60;99.90;;;;;;5034832;28;20469;-69
2022/04/30 00:58:48;;;;;;;15.93;8.93;;;8.50;99.90;;;;;;5052906;28;20025;-70
2022/04/30 01:01:14;;;;;;;22.38;10.13;;;8.50;99.90;;;;;;5052929;28;20048;-70
2022/04/30 01:03:40;;;;;;;22.13;9.98;;;8.40;99.90;;;;;;5052843;28;20028;-70
2022/04/30 01:06:06;;;;;;;17.40;9.35;;;8.40;99.90;;;;;;5052758;28;20025;-70
2022/04/30 01:08:32;;;;;;;17.17;8.27;;;8.40;99.90;;;;;;5052796;28;20021;-70
2022/04/30 01:11:03;;;;;;;19.52;10.27;;;8.30;99.90;;;;;;5052791;28;20516;-70
2022/04/30 01:13:33;;;;;;;17.30;9.07;;;8.30;99.90;;;;;;5053097;28;20389;-70
2022/04/30 01:16:00;;;;;;;;;;;8.30;99.90;;;;;;5053230;28;20139;-69
2022/04/30 01:18:27;;;;;;;16.90;9.30;;;8.20;99.90;;;;;;5052734;28;19911;-69
2022/04/30 01:20:58;;;;;;;18.98;9.57;;;8.30;99.90;;;;;;5052696;28;20017;-70
2022/04/30 01:23:26;;;;;;;20.75;9.55;;;8.20;99.90;;;;;;5052721;28;20045;-71
2022/04/30 01:25:53;;;;;;;19.95;9.88;;;8.20;99.90;;;;;;5052583;28;20028;-70
2022/04/30 01:28:20;;;;;;;18.55;9.18;;;8.20;99.90;;;;;;5053130;28;20021;-70
2022/04/30 01:30:46;;;;;;;18.20;10.13;;;8.10;99.90;;;;;;5053144;28;20016;-70
2022/04/30 01:38:42;;;;;;;17.38;9.73;;;8.00;99.90;;;;;;5052875;28;20059;-72
2022/04/30 01:41:08;;;;;;;15.13;9.32;;;8.00;99.90;;;;;;5052486;28;20017;-70
2022/04/30 01:43:34;;;;;;;21.58;9.25;;;7.90;99.90;;;;;;5052472;28;20029;-69
2022/04/30 01:46:03;;;;;;;18.73;9.68;;;8.00;99.90;;;;;;5052645;28;20025;-69
2022/04/30 01:48:29;;;;;;;15.98;10.02;;;8.00;99.90;;;;;;5053806;28;20029;-72
2022/04/30 01:50:56;;;;;;;16.85;9.45;;;7.90;99.90;;;;;;5056267;28;20066;-72
2022/04/30 01:53:21;;;;;;;21.25;10.50;;;7.90;99.90;;;;;;5056202;28;20021;-71
2022/04/30 01:55:47;;;;;;;20.23;9.70;;;7.90;99.90;;;;;;5055883;28;20459;-71
2022/04/30 01:58:13;;;;;;;20.48;10.75;;;7.80;99.90;;;;;;5055854;28;20483;-71
2022/04/30 02:00:39;;;;;;;18.77;10.57;;;7.80;99.90;;;;;;5055773;28;20104;-70
2022/04/30 02:03:09;;;;;;;22.05;9.10;;;7.80;99.90;;;;;;5055757;28;20399;-71
2022/04/30 02:05:37;;;;;;;21.98;10.90;;;7.70;99.90;;;;;;5055611;28;20028;-72
2022/04/30 02:08:12;;;;;;;17.40;9.32;;;7.70;99.90;;;;;;5055675;28;20036;-71
2022/04/30 02:10:40;;;;;;;20.67;10.43;;;7.70;99.90;;;;;;5055889;28;20029;-70
2022/04/30 02:13:08;;;;;;;18.40;10.15;;;7.60;99.90;;;;;;5055849;28;20017;-71
2022/04/30 02:15:35;;;;;;;18.45;9.52;;;7.60;99.90;;;;;;5055417;28;20025;-69
2022/04/30 02:18:03;;;;;;;19.75;10.43;;;7.60;99.90;;;;;;5055477;28;20036;-70
2022/04/30 02:20:33;;;;;;;22.60;9.75;;;7.50;99.90;;;;;;5055957;28;20104;-70
2022/04/30 02:23:08;;;;;;;17.67;9.60;;;7.50;99.90;;;;;;5055187;28;20060;-70
2022/04/30 02:25:34;;;;;;;16.67;9.50;;;7.50;99.90;;;;;;5055612;28;20033;-72
2022/04/30 02:28:04;;;;;;;19.95;9.50;;;7.50;99.90;;;;;;5055831;28;20024;-72
2022/04/30 02:30:32;;;;;;;25.73;10.48;;;7.40;99.90;;;;;;5037120;28;20436;-72
2022/04/30 02:32:57;;;;;;;21.00;9.95;;;7.30;99.90;;;;;;5055180;28;20029;-72
2022/04/30 02:35:26;;;;;;;18.05;9.77;;;7.30;99.90;;;;;;5037339;28;20040;-71
2022/04/30 02:37:54;;;;;;;22.60;10.93;;;7.40;99.90;;;;;;5055124;28;20029;-72
2022/04/30 02:40:21;;;;;;;23.73;9.98;;;7.30;99.90;;;;;;5055061;28;20080;-71
2022/04/30 02:42:51;;;;;;;18.73;9.93;;;7.20;99.90;;;;;;5055007;28;20036;-72
2022/04/30 02:45:17;;;;;;;19.15;10.05;;;7.20;99.90;;;;;;5054884;28;20063;-69
2022/04/30 02:47:45;;;;;;;17.83;10.50;;;7.10;99.90;;;;;;5054888;28;20446;-69
2022/04/30 02:50:13;;;;;;;20.85;10.02;;;7.10;99.90;;;;;;5054914;28;20021;-70
2022/04/30 02:52:43;;;;;;;20.98;10.40;;;7.10;99.90;;;;;;5054843;28;20389;-70
2022/04/30 02:55:10;;;;;;;19.65;9.98;;;7.00;99.90;;;;;;5054807;28;20097;-72
2022/04/30 03:00:35;;;;;;;22.52;11.15;;;6.90;99.90;;;;;;5054877;28;20109;-72
2022/04/30 03:03:01;;;;;;;19.58;10.80;;;6.90;99.90;;;;;;5036844;28;20152;-72
2022/04/30 03:05:27;;;;;;;20.95;11.80;;;6.90;99.90;;;;;;5055072;28;20114;-72
2022/04/30 03:07:53;;;;;;;19.27;10.18;;;6.90;99.90;;;;;;5054842;28;20021;-70
2022/04/30 03:10:20;;;;;;;17.85;10.18;;;6.80;99.90;;;;;;5054470;28;20040;-69
2022/04/30 03:12:48;;;;;;;17.85;9.93;;;6.80;99.90;;;;;;5054432;28;20013;-70
2022/04/30 03:15:14;;;;;;;31.17;11.05;;;6.80;99.90;;;;;;5054292;28;20025;-70
2022/04/30 03:23:07;;;;;;;22.27;10.65;;;6.80;99.90;;;;;;5054156;28;20052;-72
2022/04/30 03:25:33;;;;;;;21.90;10.43;;;6.70;99.90;;;;;;5036217;28;20417;-72
2022/04/30 03:27:59;;;;;;;17.83;10.13;;;6.70;99.90;;;;;;5054159;28;20021;-70
2022/04/30 03:30:25;;;;;;;22.73;10.63;;;6.50;99.90;;;;;;5054126;28;20506;-70
2022/04/30 03:32:50;;;;;;;19.20;10.95;;;6.50;99.90;;;;;;5054302;28;20023;-70
2022/04/30 03:35:16;;;;;;;19.50;10.82;;;6.40;99.90;;;;;;5054278;28;20037;-71
2022/04/30 03:37:42;;;;;;;20.27;9.90;;;6.40;99.90;;;;;;5054007;28;20503;-70
2022/04/30 03:40:08;;;;;;;21.67;10.32;;;6.50;99.90;;;;;;5036110;28;20082;-70
2022/04/30 03:42:34;;;;;;;20.38;11.07;;;6.50;99.90;;;;;;5053908;28;20096;-70
2022/04/30 03:45:03;;;;;;;25.23;11.20;;;6.50;99.90;;;;;;5054061;28;20107;-70
2022/04/30 03:47:29;;;;;;;22.73;11.10;;;6.50;99.90;;;;;;5053828;28;20013;-70
2022/04/30 03:49:55;;;;;;;25.50;11.52;;;6.50;99.90;;;;;;5053772;28;20032;-70
2022/04/30 03:52:21;;;;;;;20.50;10.60;;;6.40;99.90;;;;;;5053923;28;20021;-70
2022/04/30 03:54:47;;;;;;;21.65;10.68;;;6.30;99.90;;;;;;5053673;28;20508;-69
2022/04/30 03:57:13;;;;;;;23.83;11.43;;;6.30;99.90;;;;;;5053641;28;20025;-70
2022/04/30 03:59:38;;;;;;;21.73;10.73;;;6.20;99.90;;;;;;5053582;28;20032;-71
2022/04/30 04:02:04;;;;;;;23.25;12.02;;;6.20;99.90;;;;;;5053544;28;20111;-70
2022/04/30 04:04:30;;;;;;;24.48;12.13;;;6.20;99.90;;;;;;5053721;28;20029;-69
2022/04/30 04:06:57;;;;;;;23.02;10.65;;;6.20;99.90;;;;;;5053734;28;20029;-70
2022/04/30 04:09:23;;;;;;;21.42;12.02;;;6.30;99.90;;;;;;5053427;28;20032;-73
2022/04/30 04:11:49;;;;;;;22.42;10.52;;;6.30;99.90;;;;;;5052921;28;20025;-73
2022/04/30 04:19:43;;;;;;;23.95;11.50;;;6.30;99.90;;;;;;5053077;28;20048;-70
2022/04/30 04:22:08;;;;;;;22.05;10.30;;;6.30;99.90;;;;;;5053271;28;20489;-69
2022/04/30 04:27:18;;;;;;;21.35;12.23;;;6.30;99.90;;;;;;5053295;28;20180;-72
2022/04/30 04:29:45;;;;;;;25.35;11.85;;;6.40;99.90;;;;;;5053473;28;20021;-72
2022/04/30 04:32:10;;;;;;;24.70;11.98;;;6.40;99.90;;;;;;5053190;28;20395;-72
2022/04/30 04:34:36;;;;;;;17.75;10.85;;;6.40;99.90;;;;;;5053172;28;20104;-71
2022/04/30 04:37:02;;;;;;;19.98;11.35;;;6.30;99.90;;;;;;5053160;28;20024;-71
2022/04/30 04:39:27;;;;;;;19.73;10.63;;;6.30;99.90;;;;;;5053115;28;20032;-69
2022/04/30 04:41:53;;;;;;;16.33;9.98;;;6.20;99.90;;;;;;5053101;28;20079;-72
2022/04/30 04:44:21;;;;;;;20.65;11.43;;;6.20;99.90;;;;;;5053284;28;20052;-71
2022/04/30 04:46:47;;;;;;;25.98;11.02;;;6.00;99.90;;;;;;5035113;28;20432;-73
2022/04/30 04:49:13;;;;;;;22.27;11.85;;;6.00;99.90;;;;;;5053304;28;20017;-72
2022/04/30 04:51:39;;;;;;;20.83;11.52;;;6.10;99.90;;;;;;5052954;28;20397;-72
2022/04/30 04:54:05;;;;;;;19.90;10.82;;;6.20;99.90;;;;;;5053528;28;20029;-72
2022/04/30 04:56:31;;;;;;;19.95;11.25;;;6.10;99.90;;;;;;5053237;28;20028;-72
2022/04/30 04:58:57;;;;;;;18.63;10.35;;;6.10;99.90;;;;;;5052920;28;20027;-72
2022/04/30 05:01:22;;;;;;;21.38;9.70;;;6.10;99.90;;;;;;5052857;28;20139;-72
2022/04/30 05:03:48;;;;;;;20.27;9.88;;;5.90;99.90;;;;;;5052885;28;20068;-72
2022/04/30 05:06:14;;;;;;;17.77;9.85;;;5.90;99.90;;;;;;5053003;28;20032;-72
2022/04/30 05:08:40;;;;;;;19.00;9.05;;;5.90;99.90;;;;;;5052806;28;20405;-72
2022/04/30 05:11:06;;;;;;;24.90;9.63;;;6.00;99.90;;;;;;5052816;28;20013;-72
2022/04/30 05:13:31;;;;;;;18.40;9.68;;;5.90;99.90;;;;;;5052787;28;20099;-72
2022/04/30 05:15:57;;;;;;;16.70;8.95;;;6.00;99.90;;;;;;5052698;28;20139;-72
2022/04/30 05:18:23;;;;;;;17.92;9.48;;;6.00;99.90;;;;;;5052997;28;20393;-72
2022/04/30 05:20:48;;;;;;;18.00;9.75;;;6.10;99.90;;;;;;5034885;28;20405;-71
2022/04/30 05:23:14;;;;;;;17.85;9.38;;;6.10;99.90;;;;;;5053553;28;20421;-72
2022/04/30 05:25:42;;;;;;;19.65;9.82;;;6.20;99.90;;;;;;5056733;28;20049;-72
2022/04/30 05:28:08;;;;;;;14.68;8.80;;;6.20;99.90;;;;;;5056421;28;20025;-73
2022/04/30 05:30:34;;;;;;;19.40;9.30;;;6.30;99.90;;;;;;5056432;28;20465;-71
2022/04/30 05:32:59;;;;;;;22.40;10.90;;;6.40;99.90;;;;;;5056373;28;20029;-73
2022/04/30 05:35:25;;;;;;;18.80;9.48;;;6.40;99.90;;;;;;5056583;28;20033;-72
2022/04/30 05:37:51;;;;;;;16.73;9.75;;;6.50;99.90;;;;;;5056846;28;20055;-73
2022/04/30 05:40:18;;;;;;;47.42;27.58;;;6.60;99.90;;;;;;5056202;28;20040;-72
2022/04/30 05:42:44;;;;;;;30.70;20.08;;;6.70;99.90;;;;;;5056679;28;20017;-72
2022/04/30 05:45:10;;;;;;;20.92;10.98;;;6.80;99.90;;;;;;5056647;28;20033;-72
2022/04/30 05:47:36;;;;;;;19.90;10.48;;;6.90;99.90;;;;;;5056083;28;20466;-71
2022/04/30 05:50:06;;;;;;;19.45;10.85;;;7.00;99.90;;;;;;5056011;28;20013;-72
2022/04/30 05:52:34;;;;;;;15.93;9.98;;;7.10;99.90;;;;;;5056574;28;20086;-73
2022/04/30 05:55:03;;;;;;;19.10;9.88;;;7.20;99.90;;;;;;5055948;28;20021;-72
2022/04/30 05:57:30;;;;;;;20.55;9.88;;;7.30;99.90;;;;;;5055858;28;20025;-71
2022/04/30 05:59:56;;;;;;;21.17;9.25;;;7.50;99.90;;;;;;5055869;28;20405;-72
2022/04/30 06:02:22;;;;;;;24.90;9.70;;;7.80;99.90;;;;;;5055769;28;20033;-73
2022/04/30 06:04:48;;;;;;;15.82;8.77;;;8.10;99.90;;;;;;5055680;28;20028;-73
2022/04/30 06:07:14;;;;;;;16.15;9.20;;;8.20;99.90;;;;;;5055986;28;20393;-72
2022/04/30 06:09:39;;;;;;;18.95;9.25;;;8.40;99.90;;;;;;5055926;28;20104;-73
2022/04/30 06:12:05;;;;;;;17.33;9.13;;;8.70;99.90;;;;;;5055627;28;20054;-72
2022/04/30 06:14:31;;;;;;;17.50;9.38;;;8.90;99.90;;;;;;5056093;28;20032;-72
2022/04/30 06:16:58;;;;;;;14.93;8.85;;;9.60;99.90;;;;;;5055518;28;20068;-69
2022/04/30 06:19:24;;;;;;;14.88;8.32;;;11.80;99.90;;;;;;5055734;28;20021;-70
2022/04/30 06:21:50;;;;;;;14.32;8.98;;;13.80;99.90;;;;;;5055414;28;20108;-71
2022/04/30 06:24:16;;;;;;;14.85;9.43;;;15.30;99.90;;;;;;5055146;28;20037;-70
2022/04/30 06:26:42;;;;;;;12.18;8.02;;;15.30;99.90;;;;;;5055340;28;20489;-70
2022/04/30 06:29:09;;;;;;;14.55;8.43;;;16.50;99.90;;;;;;5055572;28;20056;-71
2022/04/30 06:31:35;;;;;;;14.27;8.50;;;15.20;99.90;;;;;;5055583;28;20025;-70
2022/04/30 06:34:01;;;;;;;15.55;8.60;;;14.00;99.90;;;;;;5054803;28;20028;-70
2022/04/30 06:36:26;;;;;;;13.82;8.30;;;13.70;99.90;;;;;;5055469;28;20060;-69
2022/04/30 06:38:52;;;;;;;14.07;8.20;;;13.40;99.90;;;;;;5055369;28;20028;-70
2022/04/30 06:41:19;;;;;;;15.23;9.18;;;12.90;99.90;;;;;;5055097;28;20187;-70
2022/04/30 06:43:44;;;;;;;15.80;8.80;;;13.00;99.90;;;;;;5055003;28;20095;-70
2022/04/30 06:46:10;;;;;;;14.57;8.40;;;12.90;99.90;;;;;;5037016;28;20139;-70
2022/04/30 06:48:36;;;;;;;20.95;15.18;;;14.10;99.90;;;;;;5054865;28;20029;-70
2022/04/30 06:51:02;;;;;;;19.75;14.00;;;14.80;99.90;;;;;;5055090;28;20105;-71
2022/04/30 06:58:59;;;;;;;13.43;8.75;;;20.20;99.00;;;;;;5054835;28;20039;-71
2022/04/30 07:01:28;;;;;;;12.33;7.43;;;22.20;95.30;;;;;;5054709;28;20036;-70
2022/04/30 07:04:01;;;;;;;14.00;7.78;;;23.70;90.70;;;;;;5054673;28;20794;-71
2022/04/30 07:06:30;;;;;;;8.65;6.38;;;23.80;83.10;;;;;;5054842;28;20557;-71
2022/04/30 07:08:56;;;;;;;13.55;7.53;;;24.00;82.30;;;;;;5054530;28;20071;-70
2022/04/30 07:11:22;;;;;;;10.73;7.10;;;24.40;78.40;;;;;;5054759;28;20025;-71
2022/04/30 07:13:47;;;;;;;11.65;6.85;;;24.90;75.60;;;;;;5054470;28;20021;-71
2022/04/30 07:16:13;;;;;;;10.82;7.15;;;25.70;73.10;;;;;;5054313;28;20098;-71
2022/04/30 07:18:39;;;;;;;10.50;6.97;;;25.10;72.40;;;;;;5054631;28;20032;-70
2022/04/30 07:21:04;;;;;;;12.50;7.07;;;25.40;70.00;;;;;;5054531;28;20036;-70
2022/04/30 07:23:31;;;;;;;12.35;7.03;;;25.00;70.60;;;;;;5054464;28;20532;-70
2022/04/30 07:25:56;;;;;;;13.45;6.82;;;26.10;69.30;;;;;;5054435;28;20029;-70
2022/04/30 07:28:26;;;;;;;9.82;6.63;;;26.70;66.90;;;;;;5054201;28;20029;-71
2022/04/30 07:30:52;;;;;;;11.68;6.60;;;26.70;65.60;;;;;;5054430;28;20074;-70
2022/04/30 07:33:18;;;;;;;10.60;6.13;;;26.70;64.60;;;;;;5054307;28;20025;-72
2022/04/30 07:35:44;;;;;;;10.10;6.53;;;27.70;63.70;;;;;;5054041;28;20029;-71
2022/04/30 07:38:09;;;;;;;12.35;7.45;;;28.70;62.00;;;;;;5054011;28;20498;-71
2022/04/30 07:40:38;;;;;;;11.60;6.85;;;28.20;60.10;;;;;;5053953;28;20448;-70
2022/04/30 07:43:04;;;;;;;13.48;7.53;;;28.50;59.00;;;;;;5053916;28;20066;-70
2022/04/30 07:45:30;;;;;;;10.88;7.03;;;28.50;59.10;;;;;;5053335;28;20033;-69
2022/04/30 07:47:56;;;;;;;10.90;6.60;;;28.90;57.80;;;;;;5053770;28;20108;-71
2022/04/30 07:50:23;;;;;;;12.40;6.50;;;28.50;57.00;;;;;;5053789;28;20017;-70
2022/04/30 07:52:49;;;;;;;10.52;6.70;;;28.90;56.00;;;;;;5053997;28;20028;-70
2022/04/30 07:55:15;;;;;;;9.02;6.88;;;28.50;56.00;;;;;;5053704;28;20027;-71
2022/04/30 07:57:41;;;;;;;9.85;6.20;;;29.00;55.50;;;;;;5053944;28;20033;-72
2022/04/30 08:00:07;;;;;;;12.32;7.03;;;29.80;54.60;;;;;;5053899;28;20491;-71
2022/04/30 08:02:33;;;;;;;11.20;7.82;;;29.90;53.60;;;;;;5053613;28;20052;-71
2022/04/30 08:05:01;;;;;;;12.10;7.05;;;30.10;53.50;;;;;;5053460;28;20032;-70
2022/04/30 08:07:27;;;;;;;11.67;7.43;;;30.50;52.80;;;;;;5053584;28;20021;-71
2022/04/30 08:09:52;;;;;;;11.23;7.43;;;30.80;52.30;;;;;;5053759;28;20092;-71
2022/04/30 08:12:19;;;;;;;11.10;7.50;;;30.60;51.60;;;;;;5053677;28;20033;-71
2022/04/30 08:14:45;;;;;;;12.38;7.93;;;31.20;51.30;;;;;;5053571;28;20025;-72
2022/04/30 08:17:14;;;;;;;10.25;7.25;;;32.20;50.80;;;;;;5053625;28;20021;-71
2022/04/30 08:19:40;;;;;;;12.40;7.55;;;31.20;49.50;;;;;;5053300;28;20025;-71
2022/04/30 08:22:06;;;;;;;10.77;7.22;;;28.90;52.80;;;;;;5053357;28;20021;-71
2022/04/30 08:24:32;;;;;;;10.48;6.82;;;29.20;52.20;;;;;;5053012;28;20037;-71
2022/04/30 08:26:59;;;;;;;13.25;8.25;;;30.40;52.60;;;;;;5053222;28;20025;-71
2022/04/30 08:29:27;;;;;;;10.55;7.57;;;31.10;51.40;;;;;;5053250;28;20477;-71
2022/04/30 08:31:53;;;;;;;11.93;8.10;;;29.20;50.80;;;;;;5053454;28;20022;-70
2022/04/30 08:34:18;;;;;;;13.32;8.52;;;28.80;52.20;;;;;;5053336;28;20485;-76
2022/04/30 08:36:45;;;;;;;15.35;9.65;;;27.90;51.70;;;;;;5053363;28;20021;-74
2022/04/30 08:39:11;;;;;;;15.15;9.73;;;25.70;54.50;;;;;;5053097;28;20063;-76
2022/04/30 08:41:36;;;;;;;15.63;9.98;;;26.70;55.40;;;;;;5053324;28;20021;-71
2022/04/30 08:44:02;;;;;;;14.43;9.40;;;26.40;52.70;;;;;;5035231;28;20028;-71
2022/04/30 08:46:27;;;;;;;13.98;10.13;;;26.30;54.00;;;;;;5053111;28;20027;-72
2022/04/30 08:48:54;;;;;;;14.00;9.07;;;27.40;54.30;;;;;;5053298;28;20029;-79
2022/04/30 08:51:19;;;;;;;13.38;9.30;;;27.50;54.40;;;;;;5053488;28;20028;-78
2022/04/30 08:53:46;;;;;;;12.57;9.27;;;27.70;53.10;;;;;;5053278;28;20401;-73
2022/04/30 08:56:12;;;;;;;14.90;11.18;;;29.80;52.00;;;;;;5053442;28;20426;-75
2022/04/30 08:58:37;;;;;;;15.13;11.73;;;26.30;52.40;;;;;;5038234;28;20079;-73
2022/04/30 09:01:05;;;;;;;15.63;11.18;;;23.80;54.90;;;;;;5040563;28;20056;-74
2022/04/30 09:03:35;;;;;;;13.70;10.93;;;26.10;56.20;;;;;;5054665;28;20025;-71
2022/04/30 09:06:06;;;;;;;15.68;11.77;;;27.30;52.70;;;;;;5036932;28;20470;-71
2022/04/30 09:08:32;;;;;;;14.82;10.43;;;28.00;53.70;;;;;;5036903;28;20075;-74
2022/04/30 09:11:05;;;;;;;12.80;11.10;;;31.60;50.80;;;;;;5037468;28;20025;-72
2022/04/30 09:13:32;;;;;;;14.40;10.57;;;32.40;47.50;;;;;;5037145;28;20022;-75
2022/04/30 09:15:58;;;;;;;17.15;10.93;;;28.50;50.50;;;;;;5036434;28;20025;-70
2022/04/30 09:18:24;;;;;;;14.20;10.85;;;26.70;54.00;;;;;;5035774;28;20026;-70
2022/04/30 09:20:53;;;;;;;18.58;11.57;;;26.30;52.70;;;;;;5035566;28;20495;-69
2022/04/30 09:23:26;;;;;;;17.50;11.63;;;24.30;56.10;;;;;;5024814;28;20041;-69
2022/04/30 09:25:56;;;;;;;16.00;12.80;;;22.70;57.70;;;;;;5055621;28;20044;-69
2022/04/30 09:28:30;;;;;;;19.42;12.43;;;21.80;58.80;;;;;;5055847;28;20028;-69
2022/04/30 09:31:09;;;;;;;18.80;11.88;;;21.20;60.90;;;;;;5055904;28;20458;-70
2022/04/30 09:33:36;;;;;;;14.37;11.23;;;21.00;61.80;;;;;;5056715;28;20147;-68
2022/04/30 09:38:51;;;;;;;16.58;12.07;;;22.60;60.30;;;;;;5057004;28;20099;-71
2022/04/30 09:41:27;;;;;;;16.60;11.13;;;26.30;54.70;;;;;;5056379;28;20122;-71
2022/04/30 09:44:07;;;;;;;16.17;11.75;;;27.10;52.90;;;;;;5054475;28;20029;-76
2022/04/30 09:46:37;;;;;;;16.98;12.38;;;28.90;52.80;;;;;;5055475;28;20036;-73
2022/04/30 09:54:42;;;;;;;15.00;11.98;;;30.10;51.70;;;;;;5055421;28;20158;-71
2022/04/30 09:57:09;;;;;;;22.35;14.63;;;28.80;49.80;;;;;;5055531;28;20025;-74
2022/04/30 09:59:37;;;;;;;15.02;13.32;;;25.70;53.00;;;;;;5055641;28;20430;-72
2022/04/30 10:02:08;;;;;;;18.02;14.55;;;23.80;56.70;;;;;;5054305;28;20029;-74
2022/04/30 10:04:35;;;;;;;19.73;13.73;;;22.80;57.50;;;;;;5055813;28;20388;-74
2022/04/30 10:07:03;;;;;;;19.35;13.10;;;22.60;58.50;;;;;;5055025;28;20024;-75
2022/04/30 10:09:46;;;;;;;16.52;12.55;;;25.40;55.30;;;;;;5054752;28;20495;-72
2022/04/30 10:12:32;;;;;;;16.05;12.10;;;28.40;52.40;;;;;;5055882;28;20021;-74
2022/04/30 10:15:28;;;;;;;15.25;12.13;;;30.30;50.80;;;;;;5056034;28;20461;-74
2022/04/30 10:17:57;;;;;;;15.70;12.15;;;31.60;49.50;;;;;;5055457;28;20025;-74
2022/04/30 10:20:29;;;;;;;17.65;12.68;;;30.60;48.60;;;;;;5055456;28;20025;-72
2022/04/30 10:22:59;;;;;;;17.40;12.45;;;26.20;52.30;;;;;;5055437;28;20036;-73
2022/04/30 10:25:42;;;;;;;13.73;11.65;;;26.70;52.60;;;;;;5055812;28;20521;-75
2022/04/30 10:28:21;;;;;;;17.85;13.15;;;27.20;52.30;;;;;;5055573;28;20020;-75
2022/04/30 10:31:00;;;;;;;16.67;13.80;;;29.40;51.00;;;;;;5055470;28;20028;-71
2022/04/30 10:33:26;;;;;;;15.15;12.52;;;30.20;49.30;;;;;;5055026;28;20029;-75
2022/04/30 10:36:04;;;;;;;15.40;13.80;;;30.30;49.50;;;;;;5055152;28;20056;-74
2022/04/30 10:38:30;;;;;;;18.08;13.75;;;29.70;49.50;;;;;;5055418;28;20079;-75
2022/04/30 10:41:00;;;;;;;16.85;13.40;;;30.10;49.50;;;;;;5055307;28;20029;-73
2022/04/30 10:43:35;;;;;;;17.38;14.25;;;29.40;49.20;;;;;;5054969;28;20551;-74
2022/04/30 10:46:23;;;;;;;15.73;13.10;;;29.50;49.40;;;;;;5053828;28;20378;-72
2022/04/30 10:48:50;;;;;;;16.90;14.43;;;31.00;48.50;;;;;;5054930;28;20103;-75
2022/04/30 10:51:30;;;;;;;17.48;14.07;;;31.60;47.60;;;;;;5054803;28;20036;-76
2022/04/30 10:53:58;;;;;;;19.45;14.25;;;31.10;47.50;;;;;;5055151;28;20017;-75
2022/04/30 10:56:27;;;;;;;16.80;14.65;;;29.40;49.00;;;;;;5054549;28;20465;-72
2022/04/30 10:58:53;;;;;;;20.25;14.98;;;28.40;51.10;;;;;;5055136;28;20079;-72
2022/04/30 11:01:20;;;;;;;19.88;16.83;;;27.80;50.40;;;;;;5055137;28;20502;-72
2022/04/30 11:03:47;;;;;;;18.85;16.00;;;25.30;53.40;;;;;;5055556;28;20033;-74
2022/04/30 11:06:21;;;;;;;19.08;16.20;;;24.70;53.60;;;;;;5055103;28;20498;-75
2022/04/30 11:08:59;;;;;;;19.30;16.27;;;26.70;53.00;;;;;;5055453;28;20465;-72
2022/04/30 11:11:26;;;;;;;18.33;14.93;;;28.30;50.50;;;;;;5055756;28;20017;-73
2022/04/30 11:14:05;;;;;;;19.70;16.60;;;28.70;50.40;;;;;;5054984;28;20025;-71
2022/04/30 11:16:33;;;;;;;20.70;17.35;;;28.10;50.60;;;;;;5054824;28;20028;-73
2022/04/30 11:19:07;;;;;;;19.70;16.30;;;28.90;50.00;;;;;;5054835;28;20040;-73
2022/04/30 11:21:35;;;;;;;20.02;17.77;;;26.90;51.80;;;;;;5055225;28;20029;-74
2022/04/30 11:24:02;;;;;;;23.38;18.02;;;24.90;53.50;;;;;;5045339;28;20045;-75
2022/04/30 11:26:30;;;;;;;21.38;17.10;;;26.10;54.20;;;;;;5034746;28;20033;-70
2022/04/30 11:28:57;;;;;;;19.20;16.58;;;24.80;54.40;;;;;;5016816;28;20032;-75
2022/04/30 11:31:23;;;;;;;21.17;16.60;;;23.40;56.70;;;;;;5034391;28;20049;-71
2022/04/30 11:33:49;;;;;;;20.65;16.20;;;23.50;57.70;;;;;;5034864;28;20025;-71
2022/04/30 11:36:15;;;;;;;23.52;17.77;;;23.40;57.60;;;;;;5034590;28;20101;-73
2022/04/30 11:38:53;;;;;;;22.27;16.55;;;23.20;58.40;;;;;;5034653;28;20474;-73
2022/04/30 11:41:18;;;;;;;20.75;16.55;;;24.00;56.30;;;;;;5034332;28;20516;-73
2022/04/30 11:43:44;;;;;;;24.33;17.52;;;22.80;57.60;;;;;;5034479;28;20053;-71
2022/04/30 11:46:10;;;;;;;21.73;16.25;;;22.40;58.90;;;;;;5034377;28;20049;-71
2022/04/30 11:48:38;;;;;;;21.73;17.98;;;22.70;58.70;;;;;;5035229;28;20060;-74
2022/04/30 11:51:06;;;;;;;20.13;15.80;;;22.80;58.40;;;;;;5034688;28;20017;-72
2022/04/30 11:53:32;;;;;;;23.50;17.42;;;22.80;59.20;;;;;;5034352;28;20109;-71
2022/04/30 11:55:58;;;;;;;21.73;16.70;;;22.30;59.20;;;;;;5034410;28;20030;-72
2022/04/30 11:58:23;;;;;;;20.50;16.35;;;21.90;59.90;;;;;;5034652;28;20033;-73
2022/04/30 12:00:53;;;;;;;24.00;18.08;;;22.50;60.20;;;;;;5034463;28;20116;-73
2022/04/30 12:03:28;;;;;;;22.10;16.58;;;23.00;60.10;;;;;;5034757;28;20033;-72
2022/04/30 12:05:54;;;;;;;17.73;15.18;;;23.40;59.10;;;;;;5034271;28;20116;-72
2022/04/30 12:08:19;;;;;;;21.45;16.08;;;22.60;60.00;;;;;;5034430;28;20059;-71
2022/04/30 12:10:57;;;;;;;18.65;15.13;;;22.10;60.90;;;;;;5034258;28;20122;-72
2022/04/30 12:13:26;;;;;;;18.67;15.25;;;22.40;61.30;;;;;;5034607;28;20036;-72
2022/04/30 12:16:05;;;;;;;21.30;16.23;;;22.70;61.20;;;;;;5034538;28;20489;-71
2022/04/30 12:26:58;;;;;;;22.05;14.45;;;21.90;62.40;;;;;;5034271;28;20044;-71
2022/04/30 12:29:24;;;;;;;18.80;15.15;;;21.40;62.70;;;;;;5016120;28;20059;-72
2022/04/30 12:31:51;;;;;;;20.80;15.95;;;21.00;62.90;;;;;;5033570;28;20068;-73
2022/04/30 12:34:25;;;;;;;21.65;14.88;;;20.90;64.30;;;;;;5033999;28;20025;-74
2022/04/30 12:36:54;;;;;;;22.83;15.07;;;21.30;64.20;;;;;;5033861;28;20424;-71
2022/04/30 12:39:22;;;;;;;19.25;13.70;;;21.70;62.80;;;;;;5033766;28;20429;-73
2022/04/30 12:41:48;;;;;;;19.30;14.60;;;21.70;65.00;;;;;;5033960;28;20398;-73
2022/04/30 12:44:14;;;;;;;19.77;14.20;;;21.80;63.10;;;;;;5034085;28;20026;-70
2022/04/30 12:46:44;;;;;;;23.80;15.02;;;21.60;62.70;;;;;;5033874;28;20036;-72
2022/04/30 12:49:11;;;;;;;;;;;21.40;63.40;;;;;;5033996;28;20033;-73
2022/04/30 12:51:37;;;;;;;21.10;15.18;;;21.70;63.00;;;;;;5034098;28;19905;-71
2022/04/30 12:54:03;;;;;;;18.00;13.93;;;21.50;64.20;;;;;;5033497;28;20488;-70
2022/04/30 12:56:31;;;;;;;20.10;14.23;;;21.40;63.60;;;;;;5033435;28;20029;-71
2022/04/30 12:58:57;;;;;;;18.08;14.38;;;21.30;64.30;;;;;;5033857;28;20430;-71
2022/04/30 13:01:22;;;;;;;22.15;14.15;;;21.80;62.60;;;;;;5034044;28;20091;-72
2022/04/30 13:03:49;;;;;;;20.02;15.70;;;21.70;64.40;;;;;;5033669;28;20052;-71
2022/04/30 13:06:15;;;;;;;21.08;15.23;;;21.10;64.70;;;;;;5033507;28;20044;-72
2022/04/30 13:14:28;;;;;;;20.83;15.38;;;21.80;64.10;;;;;;4972880;28;20019;-72
2022/04/30 13:16:54;;;;;;;21.23;14.63;;;21.10;65.80;;;;;;4972275;28;20143;-72
2022/04/30 13:19:20;;;;;;;20.50;14.80;;;21.20;65.90;;;;;;4999749;28;20457;-73
2022/04/30 13:21:49;;;;;;;19.08;14.75;;;21.00;66.00;;;;;;5033602;28;20080;-72
2022/04/30 13:24:15;;;;;;;22.02;15.05;;;20.90;65.90;;;;;;5033846;28;20048;-70
2022/04/30 13:26:42;;;;;;;20.33;15.20;;;20.90;65.90;;;;;;5052607;28;20033;-73
2022/04/30 13:29:10;;;;;;;22.75;15.70;;;21.00;66.60;;;;;;5052995;28;20033;-72